sensor_id;sensor_type;location;lat;lon;timestamp;P1;durP1;ratioP1;P2;durP2;ratioP2
22284;SDS011;11311;52.192;20.900;2022-12-18T00:00:22;51.25;;;29.95;;
22284;SDS011;11311;52.192;20.900;2022-12-18T00:02:55;47.20;;;29.73;;
22284;SDS011;11311;52.192;20.900;2022-12-18T00:05:23;45.67;;;28.35;;
22284;SDS011;11311;52.192;20.900;2022-12-18T00:07:52;52.20;;;30.88;;
22284;SDS011;11311;52.192;20.900;2022-12-18T00:10:20;50.75;;;30.80;;
22284;SDS011;11311;52.192;20.900;2022-12-18T00:12:49;48.22;;;28.38;;
22284;SDS011;11311;52.192;20.900;2022-12-18T00:15:18;49.97;;;30.60;;
22284;SDS011;11311;52.192;20.900;2022-12-18T00:17:47;50.30;;;30.30;;
22284;SDS011;11311;52.192;20.900;2022-12-18T00:20:17;57.03;;;31.55;;
22284;SDS011;11311;52.192;20.900;2022-12-18T00:22:52;53.10;;;30.90;;
22284;SDS011;11311;52.192;20.900;2022-12-18T00:25:20;45.40;;;27.55;;
22284;SDS011;11311;52.192;20.900;2022-12-18T00:27:49;37.47;;;21.30;;
22284;SDS011;11311;52.192;20.900;2022-12-18T00:30:18;61.83;;;30.98;;
22284;SDS011;11311;52.192;20.900;2022-12-18T00:32:47;54.17;;;29.35;;
22284;SDS011;11311;52.192;20.900;2022-12-18T00:35:17;47.28;;;28.85;;
22284;SDS011;11311;52.192;20.900;2022-12-18T00:37:45;53.25;;;28.40;;
22284;SDS011;11311;52.192;20.900;2022-12-18T00:40:14;51.03;;;30.27;;
22284;SDS011;11311;52.192;20.900;2022-12-18T00:42:43;47.72;;;28.83;;
22284;SDS011;11311;52.192;20.900;2022-12-18T00:45:23;50.05;;;29.80;;
22284;SDS011;11311;52.192;20.900;2022-12-18T00:47:52;55.63;;;32.58;;
22284;SDS011;11311;52.192;20.900;2022-12-18T00:50:22;52.33;;;29.52;;
22284;SDS011;11311;52.192;20.900;2022-12-18T00:52:52;52.75;;;30.30;;
22284;SDS011;11311;52.192;20.900;2022-12-18T00:55:21;49.40;;;29.60;;
22284;SDS011;11311;52.192;20.900;2022-12-18T00:57:50;43.67;;;28.63;;
22284;SDS011;11311;52.192;20.900;2022-12-18T01:00:19;55.00;;;29.83;;
22284;SDS011;11311;52.192;20.900;2022-12-18T01:02:49;53.80;;;29.52;;
22284;SDS011;11311;52.192;20.900;2022-12-18T01:05:18;44.22;;;26.73;;
22284;SDS011;11311;52.192;20.900;2022-12-18T01:07:47;55.85;;;28.70;;
22284;SDS011;11311;52.192;20.900;2022-12-18T01:10:16;50.78;;;28.70;;
22284;SDS011;11311;52.192;20.900;2022-12-18T01:12:45;49.15;;;28.98;;
22284;SDS011;11311;52.192;20.900;2022-12-18T01:15:14;51.28;;;27.88;;
22284;SDS011;11311;52.192;20.900;2022-12-18T01:17:43;54.63;;;28.70;;
22284;SDS011;11311;52.192;20.900;2022-12-18T01:20:12;56.67;;;31.35;;
22284;SDS011;11311;52.192;20.900;2022-12-18T01:22:41;37.97;;;19.97;;
22284;SDS011;11311;52.192;20.900;2022-12-18T01:25:12;41.67;;;25.00;;
22284;SDS011;11311;52.192;20.900;2022-12-18T01:27:40;45.88;;;25.27;;
22284;SDS011;11311;52.192;20.900;2022-12-18T01:30:10;50.90;;;23.52;;
22284;SDS011;11311;52.192;20.900;2022-12-18T01:32:39;52.65;;;28.08;;
22284;SDS011;11311;52.192;20.900;2022-12-18T01:35:08;48.17;;;26.45;;
22284;SDS011;11311;52.192;20.900;2022-12-18T01:37:36;53.30;;;27.67;;
22284;SDS011;11311;52.192;20.900;2022-12-18T01:40:05;48.88;;;27.90;;
22284;SDS011;11311;52.192;20.900;2022-12-18T01:42:37;46.70;;;25.67;;
22284;SDS011;11311;52.192;20.900;2022-12-18T01:45:06;51.25;;;26.20;;
22284;SDS011;11311;52.192;20.900;2022-12-18T01:47:51;55.42;;;27.80;;
22284;SDS011;11311;52.192;20.900;2022-12-18T01:50:22;50.47;;;25.67;;
22284;SDS011;11311;52.192;20.900;2022-12-18T01:52:53;51.67;;;28.02;;
22284;SDS011;11311;52.192;20.900;2022-12-18T01:55:25;48.15;;;26.15;;
22284;SDS011;11311;52.192;20.900;2022-12-18T01:57:57;54.00;;;27.77;;
22284;SDS011;11311;52.192;20.900;2022-12-18T02:00:27;44.80;;;25.15;;
22284;SDS011;11311;52.192;20.900;2022-12-18T02:02:56;34.28;;;19.65;;
22284;SDS011;11311;52.192;20.900;2022-12-18T02:05:29;52.70;;;24.58;;
22284;SDS011;11311;52.192;20.900;2022-12-18T02:08:07;47.70;;;25.63;;
22284;SDS011;11311;52.192;20.900;2022-12-18T02:10:41;50.63;;;27.25;;
22284;SDS011;11311;52.192;20.900;2022-12-18T02:13:18;49.67;;;27.63;;
22284;SDS011;11311;52.192;20.900;2022-12-18T02:15:51;51.15;;;25.92;;
22284;SDS011;11311;52.192;20.900;2022-12-18T02:18:24;50.05;;;25.77;;
22284;SDS011;11311;52.192;20.900;2022-12-18T02:20:55;50.63;;;27.55;;
22284;SDS011;11311;52.192;20.900;2022-12-18T02:23:33;49.30;;;25.38;;
22284;SDS011;11311;52.192;20.900;2022-12-18T02:26:15;50.45;;;25.05;;
22284;SDS011;11311;52.192;20.900;2022-12-18T02:28:51;53.92;;;28.15;;
22284;SDS011;11311;52.192;20.900;2022-12-18T02:31:23;48.38;;;24.27;;
22284;SDS011;11311;52.192;20.900;2022-12-18T02:33:58;56.15;;;29.35;;
22284;SDS011;11311;52.192;20.900;2022-12-18T02:36:32;54.17;;;27.83;;
22284;SDS011;11311;52.192;20.900;2022-12-18T02:39:02;51.28;;;26.60;;
22284;SDS011;11311;52.192;20.900;2022-12-18T02:41:36;49.92;;;27.08;;
22284;SDS011;11311;52.192;20.900;2022-12-18T02:44:08;56.17;;;27.05;;
22284;SDS011;11311;52.192;20.900;2022-12-18T02:46:39;47.22;;;24.85;;
22284;SDS011;11311;52.192;20.900;2022-12-18T02:49:17;49.38;;;27.35;;
22284;SDS011;11311;52.192;20.900;2022-12-18T02:51:55;55.10;;;27.10;;
22284;SDS011;11311;52.192;20.900;2022-12-18T02:54:33;50.33;;;26.55;;
22284;SDS011;11311;52.192;20.900;2022-12-18T02:57:12;54.42;;;27.52;;
22284;SDS011;11311;52.192;20.900;2022-12-18T02:59:46;51.80;;;27.90;;
22284;SDS011;11311;52.192;20.900;2022-12-18T03:02:23;55.17;;;27.05;;
22284;SDS011;11311;52.192;20.900;2022-12-18T03:04:56;52.50;;;27.38;;
22284;SDS011;11311;52.192;20.900;2022-12-18T03:07:33;52.78;;;28.25;;
22284;SDS011;11311;52.192;20.900;2022-12-18T03:10:07;52.47;;;26.00;;
22284;SDS011;11311;52.192;20.900;2022-12-18T03:12:41;48.50;;;26.52;;
22284;SDS011;11311;52.192;20.900;2022-12-18T03:15:13;49.20;;;28.35;;
22284;SDS011;11311;52.192;20.900;2022-12-18T03:17:51;51.58;;;28.70;;
22284;SDS011;11311;52.192;20.900;2022-12-18T03:20:33;52.85;;;28.20;;
22284;SDS011;11311;52.192;20.900;2022-12-18T03:23:04;52.55;;;26.52;;
22284;SDS011;11311;52.192;20.900;2022-12-18T03:25:36;52.45;;;27.08;;
22284;SDS011;11311;52.192;20.900;2022-12-18T03:28:09;52.97;;;28.33;;
22284;SDS011;11311;52.192;20.900;2022-12-18T03:30:43;53.00;;;26.52;;
22284;SDS011;11311;52.192;20.900;2022-12-18T03:33:14;48.45;;;25.00;;
22284;SDS011;11311;52.192;20.900;2022-12-18T03:35:49;55.25;;;28.15;;
22284;SDS011;11311;52.192;20.900;2022-12-18T03:38:18;49.20;;;26.48;;
22284;SDS011;11311;52.192;20.900;2022-12-18T03:40:53;48.78;;;25.90;;
22284;SDS011;11311;52.192;20.900;2022-12-18T03:43:30;50.47;;;26.15;;
22284;SDS011;11311;52.192;20.900;2022-12-18T03:46:10;43.00;;;23.50;;
22284;SDS011;11311;52.192;20.900;2022-12-18T03:48:44;47.05;;;25.10;;
22284;SDS011;11311;52.192;20.900;2022-12-18T03:51:23;46.45;;;25.48;;
22284;SDS011;11311;52.192;20.900;2022-12-18T03:53:54;46.95;;;25.30;;
22284;SDS011;11311;52.192;20.900;2022-12-18T03:56:30;47.97;;;24.95;;
22284;SDS011;11311;52.192;20.900;2022-12-18T03:59:01;48.47;;;26.33;;
22284;SDS011;11311;52.192;20.900;2022-12-18T04:01:32;48.80;;;25.17;;
22284;SDS011;11311;52.192;20.900;2022-12-18T04:04:02;50.40;;;26.67;;
22284;SDS011;11311;52.192;20.900;2022-12-18T04:06:35;48.10;;;24.98;;
22284;SDS011;11311;52.192;20.900;2022-12-18T04:09:04;47.53;;;24.23;;
22284;SDS011;11311;52.192;20.900;2022-12-18T04:11:37;45.90;;;23.95;;
22284;SDS011;11311;52.192;20.900;2022-12-18T04:14:07;46.63;;;25.42;;
22284;SDS011;11311;52.192;20.900;2022-12-18T04:16:43;51.53;;;24.83;;
22284;SDS011;11311;52.192;20.900;2022-12-18T04:19:15;44.40;;;22.30;;
22284;SDS011;11311;52.192;20.900;2022-12-18T04:21:46;50.85;;;26.27;;
22284;SDS011;11311;52.192;20.900;2022-12-18T04:24:15;50.35;;;24.85;;
22284;SDS011;11311;52.192;20.900;2022-12-18T04:26:53;51.15;;;25.80;;
22284;SDS011;11311;52.192;20.900;2022-12-18T04:29:26;58.40;;;26.77;;
22284;SDS011;11311;52.192;20.900;2022-12-18T04:34:26;49.65;;;25.90;;
22284;SDS011;11311;52.192;20.900;2022-12-18T04:36:55;51.22;;;25.63;;
22284;SDS011;11311;52.192;20.900;2022-12-18T04:39:25;48.15;;;26.48;;
22284;SDS011;11311;52.192;20.900;2022-12-18T04:41:56;48.75;;;27.13;;
22284;SDS011;11311;52.192;20.900;2022-12-18T04:44:26;50.65;;;28.08;;
22284;SDS011;11311;52.192;20.900;2022-12-18T04:46:55;52.42;;;27.33;;
22284;SDS011;11311;52.192;20.900;2022-12-18T04:49:24;50.78;;;28.75;;
22284;SDS011;11311;52.192;20.900;2022-12-18T04:51:53;61.77;;;28.37;;
22284;SDS011;11311;52.192;20.900;2022-12-18T04:54:22;53.80;;;29.35;;
22284;SDS011;11311;52.192;20.900;2022-12-18T04:56:50;56.97;;;27.90;;
22284;SDS011;11311;52.192;20.900;2022-12-18T04:59:19;56.53;;;29.58;;
22284;SDS011;11311;52.192;20.900;2022-12-18T05:01:50;38.73;;;22.67;;
22284;SDS011;11311;52.192;20.900;2022-12-18T05:04:20;47.60;;;25.90;;
22284;SDS011;11311;52.192;20.900;2022-12-18T05:06:49;57.70;;;29.45;;
22284;SDS011;11311;52.192;20.900;2022-12-18T05:09:17;58.08;;;30.85;;
22284;SDS011;11311;52.192;20.900;2022-12-18T05:11:46;58.83;;;29.35;;
22284;SDS011;11311;52.192;20.900;2022-12-18T05:14:15;59.28;;;30.63;;
22284;SDS011;11311;52.192;20.900;2022-12-18T05:16:43;58.53;;;31.73;;
22284;SDS011;11311;52.192;20.900;2022-12-18T05:19:13;61.55;;;32.10;;
22284;SDS011;11311;52.192;20.900;2022-12-18T05:21:42;58.42;;;30.25;;
22284;SDS011;11311;52.192;20.900;2022-12-18T05:24:11;63.28;;;30.13;;
22284;SDS011;11311;52.192;20.900;2022-12-18T05:26:40;64.70;;;31.75;;
22284;SDS011;11311;52.192;20.900;2022-12-18T05:29:09;59.28;;;31.05;;
22284;SDS011;11311;52.192;20.900;2022-12-18T05:34:09;63.03;;;29.83;;
22284;SDS011;11311;52.192;20.900;2022-12-18T05:36:40;46.13;;;23.05;;
22284;SDS011;11311;52.192;20.900;2022-12-18T05:39:10;60.75;;;30.80;;
22284;SDS011;11311;52.192;20.900;2022-12-18T05:41:39;64.53;;;33.00;;
22284;SDS011;11311;52.192;20.900;2022-12-18T05:44:08;41.07;;;22.60;;
22284;SDS011;11311;52.192;20.900;2022-12-18T05:46:36;61.05;;;30.02;;
22284;SDS011;11311;52.192;20.900;2022-12-18T05:51:35;62.40;;;30.88;;
22284;SDS011;11311;52.192;20.900;2022-12-18T05:54:05;63.80;;;30.48;;
22284;SDS011;11311;52.192;20.900;2022-12-18T05:56:34;60.63;;;31.98;;
22284;SDS011;11311;52.192;20.900;2022-12-18T05:59:03;65.93;;;31.85;;
22284;SDS011;11311;52.192;20.900;2022-12-18T06:01:32;48.03;;;25.83;;
22284;SDS011;11311;52.192;20.900;2022-12-18T06:04:01;58.55;;;29.63;;
22284;SDS011;11311;52.192;20.900;2022-12-18T06:06:31;62.20;;;29.73;;
22284;SDS011;11311;52.192;20.900;2022-12-18T06:09:00;61.35;;;32.90;;
22284;SDS011;11311;52.192;20.900;2022-12-18T06:11:36;57.05;;;29.27;;
22284;SDS011;11311;52.192;20.900;2022-12-18T06:14:06;70.22;;;33.38;;
22284;SDS011;11311;52.192;20.900;2022-12-18T06:16:34;61.22;;;31.75;;
22284;SDS011;11311;52.192;20.900;2022-12-18T06:19:04;64.65;;;32.58;;
22284;SDS011;11311;52.192;20.900;2022-12-18T06:21:33;60.85;;;30.88;;
22284;SDS011;11311;52.192;20.900;2022-12-18T06:24:02;60.55;;;31.50;;
22284;SDS011;11311;52.192;20.900;2022-12-18T06:26:31;61.17;;;30.88;;
22284;SDS011;11311;52.192;20.900;2022-12-18T06:29:01;65.82;;;29.60;;
22284;SDS011;11311;52.192;20.900;2022-12-18T06:31:29;60.85;;;30.38;;
22284;SDS011;11311;52.192;20.900;2022-12-18T06:33:58;60.97;;;31.65;;
22284;SDS011;11311;52.192;20.900;2022-12-18T06:36:27;68.68;;;31.83;;
22284;SDS011;11311;52.192;20.900;2022-12-18T06:38:57;62.92;;;32.97;;
22284;SDS011;11311;52.192;20.900;2022-12-18T06:41:27;46.38;;;23.38;;
22284;SDS011;11311;52.192;20.900;2022-12-18T06:43:55;62.28;;;32.22;;
22284;SDS011;11311;52.192;20.900;2022-12-18T06:48:55;70.95;;;31.30;;
22284;SDS011;11311;52.192;20.900;2022-12-18T06:51:24;69.45;;;33.97;;
22284;SDS011;11311;52.192;20.900;2022-12-18T06:53:54;71.78;;;33.92;;
22284;SDS011;11311;52.192;20.900;2022-12-18T06:56:23;68.72;;;33.15;;
22284;SDS011;11311;52.192;20.900;2022-12-18T06:58:51;67.00;;;31.02;;
22284;SDS011;11311;52.192;20.900;2022-12-18T07:01:20;62.63;;;31.33;;
22284;SDS011;11311;52.192;20.900;2022-12-18T07:03:53;72.20;;;31.90;;
22284;SDS011;11311;52.192;20.900;2022-12-18T07:06:22;69.28;;;32.63;;
22284;SDS011;11311;52.192;20.900;2022-12-18T07:08:53;59.00;;;31.58;;
22284;SDS011;11311;52.192;20.900;2022-12-18T07:11:22;68.53;;;34.78;;
22284;SDS011;11311;52.192;20.900;2022-12-18T07:13:51;66.55;;;32.88;;
22284;SDS011;11311;52.192;20.900;2022-12-18T07:16:21;69.63;;;33.92;;
22284;SDS011;11311;52.192;20.900;2022-12-18T07:18:53;73.82;;;32.70;;
22284;SDS011;11311;52.192;20.900;2022-12-18T07:21:23;66.38;;;32.05;;
22284;SDS011;11311;52.192;20.900;2022-12-18T07:23:52;62.45;;;31.33;;
22284;SDS011;11311;52.192;20.900;2022-12-18T07:26:21;64.70;;;32.67;;
22284;SDS011;11311;52.192;20.900;2022-12-18T07:28:50;65.00;;;33.28;;
22284;SDS011;11311;52.192;20.900;2022-12-18T07:31:19;66.10;;;31.70;;
22284;SDS011;11311;52.192;20.900;2022-12-18T07:36:19;68.20;;;30.38;;
22284;SDS011;11311;52.192;20.900;2022-12-18T07:38:48;67.85;;;33.88;;
22284;SDS011;11311;52.192;20.900;2022-12-18T07:41:17;65.28;;;32.50;;
22284;SDS011;11311;52.192;20.900;2022-12-18T07:43:45;73.50;;;32.47;;
22284;SDS011;11311;52.192;20.900;2022-12-18T07:46:14;68.13;;;31.48;;
22284;SDS011;11311;52.192;20.900;2022-12-18T07:48:44;66.30;;;34.25;;
22284;SDS011;11311;52.192;20.900;2022-12-18T07:51:16;63.90;;;31.23;;
22284;SDS011;11311;52.192;20.900;2022-12-18T07:53:46;61.03;;;30.85;;
22284;SDS011;11311;52.192;20.900;2022-12-18T07:56:18;73.40;;;33.08;;
22284;SDS011;11311;52.192;20.900;2022-12-18T07:58:54;67.65;;;33.08;;
22284;SDS011;11311;52.192;20.900;2022-12-18T08:01:22;71.40;;;32.85;;
22284;SDS011;11311;52.192;20.900;2022-12-18T08:03:51;47.38;;;25.23;;
22284;SDS011;11311;52.192;20.900;2022-12-18T08:06:20;66.38;;;31.80;;
22284;SDS011;11311;52.192;20.900;2022-12-18T08:08:52;62.40;;;32.22;;
22284;SDS011;11311;52.192;20.900;2022-12-18T08:11:22;62.22;;;31.02;;
22284;SDS011;11311;52.192;20.900;2022-12-18T08:13:51;50.58;;;27.48;;
22284;SDS011;11311;52.192;20.900;2022-12-18T08:16:20;62.60;;;31.08;;
22284;SDS011;11311;52.192;20.900;2022-12-18T08:18:51;66.55;;;32.70;;
22284;SDS011;11311;52.192;20.900;2022-12-18T08:21:21;59.25;;;32.05;;
22284;SDS011;11311;52.192;20.900;2022-12-18T08:23:52;68.90;;;33.40;;
22284;SDS011;11311;52.192;20.900;2022-12-18T08:26:22;64.07;;;34.35;;
22284;SDS011;11311;52.192;20.900;2022-12-18T08:28:51;64.13;;;34.45;;
22284;SDS011;11311;52.192;20.900;2022-12-18T08:31:21;67.45;;;34.10;;
22284;SDS011;11311;52.192;20.900;2022-12-18T08:33:50;64.53;;;32.10;;
22284;SDS011;11311;52.192;20.900;2022-12-18T08:36:21;66.55;;;33.10;;
22284;SDS011;11311;52.192;20.900;2022-12-18T08:38:53;69.57;;;34.60;;
22284;SDS011;11311;52.192;20.900;2022-12-18T08:43:50;61.95;;;33.40;;
22284;SDS011;11311;52.192;20.900;2022-12-18T08:46:37;66.30;;;34.25;;
22284;SDS011;11311;52.192;20.900;2022-12-18T08:49:07;74.43;;;35.72;;
22284;SDS011;11311;52.192;20.900;2022-12-18T08:51:36;59.75;;;30.63;;
22284;SDS011;11311;52.192;20.900;2022-12-18T08:54:07;68.35;;;34.75;;
22284;SDS011;11311;52.192;20.900;2022-12-18T08:56:37;69.13;;;35.33;;
22284;SDS011;11311;52.192;20.900;2022-12-18T08:59:05;61.40;;;31.90;;
22284;SDS011;11311;52.192;20.900;2022-12-18T09:01:34;71.72;;;36.05;;
22284;SDS011;11311;52.192;20.900;2022-12-18T09:04:03;69.63;;;34.00;;
22284;SDS011;11311;52.192;20.900;2022-12-18T09:06:34;64.20;;;32.33;;
22284;SDS011;11311;52.192;20.900;2022-12-18T09:09:04;71.63;;;38.63;;
22284;SDS011;11311;52.192;20.900;2022-12-18T09:11:34;62.93;;;34.93;;
22284;SDS011;11311;52.192;20.900;2022-12-18T09:16:32;67.13;;;35.55;;
22284;SDS011;11311;52.192;20.900;2022-12-18T09:19:02;70.28;;;37.60;;
22284;SDS011;11311;52.192;20.900;2022-12-18T09:21:32;58.88;;;31.45;;
22284;SDS011;11311;52.192;20.900;2022-12-18T09:24:03;72.80;;;37.08;;
22284;SDS011;11311;52.192;20.900;2022-12-18T09:26:36;70.90;;;36.85;;
22284;SDS011;11311;52.192;20.900;2022-12-18T09:29:06;76.97;;;39.10;;
22284;SDS011;11311;52.192;20.900;2022-12-18T09:31:35;66.43;;;31.83;;
22284;SDS011;11311;52.192;20.900;2022-12-18T09:34:05;76.40;;;40.03;;
22284;SDS011;11311;52.192;20.900;2022-12-18T09:36:33;76.05;;;37.65;;
22284;SDS011;11311;52.192;20.900;2022-12-18T09:39:02;74.10;;;36.97;;
22284;SDS011;11311;52.192;20.900;2022-12-18T09:41:39;76.13;;;38.88;;
22284;SDS011;11311;52.192;20.900;2022-12-18T09:44:20;77.55;;;39.30;;
22284;SDS011;11311;52.192;20.900;2022-12-18T09:46:52;85.72;;;43.17;;
22284;SDS011;11311;52.192;20.900;2022-12-18T09:49:24;78.70;;;39.55;;
22284;SDS011;11311;52.192;20.900;2022-12-18T09:51:56;76.05;;;40.63;;
22284;SDS011;11311;52.192;20.900;2022-12-18T09:54:30;77.95;;;40.28;;
22284;SDS011;11311;52.192;20.900;2022-12-18T09:57:04;80.35;;;40.35;;
22284;SDS011;11311;52.192;20.900;2022-12-18T09:59:34;81.15;;;40.67;;
22284;SDS011;11311;52.192;20.900;2022-12-18T10:02:17;86.43;;;41.35;;
22284;SDS011;11311;52.192;20.900;2022-12-18T10:04:49;79.07;;;38.33;;
22284;SDS011;11311;52.192;20.900;2022-12-18T10:07:24;78.50;;;40.30;;
22284;SDS011;11311;52.192;20.900;2022-12-18T10:09:58;80.35;;;41.20;;
22284;SDS011;11311;52.192;20.900;2022-12-18T10:12:32;76.70;;;38.05;;
22284;SDS011;11311;52.192;20.900;2022-12-18T10:15:06;74.25;;;37.97;;
22284;SDS011;11311;52.192;20.900;2022-12-18T10:17:39;67.35;;;36.97;;
22284;SDS011;11311;52.192;20.900;2022-12-18T10:20:13;73.38;;;38.70;;
22284;SDS011;11311;52.192;20.900;2022-12-18T10:22:47;87.28;;;40.30;;
22284;SDS011;11311;52.192;20.900;2022-12-18T10:25:21;64.65;;;35.88;;
22284;SDS011;11311;52.192;20.900;2022-12-18T10:27:55;70.35;;;35.53;;
22284;SDS011;11311;52.192;20.900;2022-12-18T10:30:24;66.68;;;37.10;;
22284;SDS011;11311;52.192;20.900;2022-12-18T10:32:53;80.13;;;40.90;;
22284;SDS011;11311;52.192;20.900;2022-12-18T10:35:23;78.63;;;39.97;;
22284;SDS011;11311;52.192;20.900;2022-12-18T10:37:59;79.78;;;37.83;;
22284;SDS011;11311;52.192;20.900;2022-12-18T10:40:29;77.97;;;41.50;;
22284;SDS011;11311;52.192;20.900;2022-12-18T10:43:11;75.95;;;38.78;;
22284;SDS011;11311;52.192;20.900;2022-12-18T10:45:41;77.47;;;38.78;;
22284;SDS011;11311;52.192;20.900;2022-12-18T10:48:19;88.07;;;40.80;;
22284;SDS011;11311;52.192;20.900;2022-12-18T10:50:49;81.55;;;41.00;;
22284;SDS011;11311;52.192;20.900;2022-12-18T10:56:08;74.30;;;37.38;;
22284;SDS011;11311;52.192;20.900;2022-12-18T10:58:38;78.63;;;39.38;;
22284;SDS011;11311;52.192;20.900;2022-12-18T11:01:09;74.88;;;37.83;;
22284;SDS011;11311;52.192;20.900;2022-12-18T11:03:39;77.32;;;39.53;;
22284;SDS011;11311;52.192;20.900;2022-12-18T11:06:11;78.03;;;40.53;;
22284;SDS011;11311;52.192;20.900;2022-12-18T11:08:41;73.25;;;38.60;;
22284;SDS011;11311;52.192;20.900;2022-12-18T11:13:49;75.68;;;37.47;;
22284;SDS011;11311;52.192;20.900;2022-12-18T11:16:25;79.78;;;39.25;;
22284;SDS011;11311;52.192;20.900;2022-12-18T11:19:12;72.97;;;35.58;;
22284;SDS011;11311;52.192;20.900;2022-12-18T11:21:56;73.88;;;38.17;;
22284;SDS011;11311;52.192;20.900;2022-12-18T11:24:27;76.78;;;41.50;;
22284;SDS011;11311;52.192;20.900;2022-12-18T11:26:58;73.85;;;40.83;;
22284;SDS011;11311;52.192;20.900;2022-12-18T11:29:32;83.20;;;42.72;;
22284;SDS011;11311;52.192;20.900;2022-12-18T11:34:53;72.65;;;37.63;;
22284;SDS011;11311;52.192;20.900;2022-12-18T11:37:26;91.05;;;43.00;;
22284;SDS011;11311;52.192;20.900;2022-12-18T11:39:56;70.88;;;38.55;;
22284;SDS011;11311;52.192;20.900;2022-12-18T11:42:27;75.35;;;39.88;;
22284;SDS011;11311;52.192;20.900;2022-12-18T11:45:03;71.00;;;38.35;;
22284;SDS011;11311;52.192;20.900;2022-12-18T11:47:47;79.32;;;41.10;;
22284;SDS011;11311;52.192;20.900;2022-12-18T11:50:19;69.78;;;35.42;;
22284;SDS011;11311;52.192;20.900;2022-12-18T11:52:50;68.03;;;36.10;;
22284;SDS011;11311;52.192;20.900;2022-12-18T11:55:28;62.80;;;36.38;;
22284;SDS011;11311;52.192;20.900;2022-12-18T11:58:05;63.08;;;35.50;;
22284;SDS011;11311;52.192;20.900;2022-12-18T12:00:42;65.45;;;38.22;;
22284;SDS011;11311;52.192;20.900;2022-12-18T12:03:27;65.43;;;35.95;;
22284;SDS011;11311;52.192;20.900;2022-12-18T12:06:10;69.78;;;39.05;;
22284;SDS011;11311;52.192;20.900;2022-12-18T12:08:48;67.07;;;37.50;;
22284;SDS011;11311;52.192;20.900;2022-12-18T12:11:23;77.80;;;41.42;;
22284;SDS011;11311;52.192;20.900;2022-12-18T12:14:01;73.75;;;40.25;;
22284;SDS011;11311;52.192;20.900;2022-12-18T12:16:41;75.57;;;40.60;;
22284;SDS011;11311;52.192;20.900;2022-12-18T12:19:20;74.15;;;39.90;;
22284;SDS011;11311;52.192;20.900;2022-12-18T12:21:56;74.47;;;39.97;;
22284;SDS011;11311;52.192;20.900;2022-12-18T12:24:31;66.78;;;36.83;;
22284;SDS011;11311;52.192;20.900;2022-12-18T12:27:08;73.32;;;38.78;;
22284;SDS011;11311;52.192;20.900;2022-12-18T12:29:47;80.15;;;41.13;;
22284;SDS011;11311;52.192;20.900;2022-12-18T12:32:25;81.85;;;44.53;;
22284;SDS011;11311;52.192;20.900;2022-12-18T12:35:08;80.43;;;40.95;;
22284;SDS011;11311;52.192;20.900;2022-12-18T12:37:46;74.13;;;39.53;;
22284;SDS011;11311;52.192;20.900;2022-12-18T12:40:21;73.68;;;39.92;;
22284;SDS011;11311;52.192;20.900;2022-12-18T12:43:16;69.10;;;40.00;;
22284;SDS011;11311;52.192;20.900;2022-12-18T12:45:50;78.30;;;39.38;;
22284;SDS011;11311;52.192;20.900;2022-12-18T12:48:27;73.40;;;40.33;;
22284;SDS011;11311;52.192;20.900;2022-12-18T12:51:02;80.72;;;41.13;;
22284;SDS011;11311;52.192;20.900;2022-12-18T12:53:34;36.17;;;18.90;;
22284;SDS011;11311;52.192;20.900;2022-12-18T12:56:05;79.93;;;42.17;;
22284;SDS011;11311;52.192;20.900;2022-12-18T12:58:36;77.07;;;41.55;;
22284;SDS011;11311;52.192;20.900;2022-12-18T13:01:11;81.25;;;39.33;;
22284;SDS011;11311;52.192;20.900;2022-12-18T13:03:54;74.07;;;39.33;;
22284;SDS011;11311;52.192;20.900;2022-12-18T13:06:30;77.15;;;40.22;;
22284;SDS011;11311;52.192;20.900;2022-12-18T13:09:16;75.88;;;38.05;;
22284;SDS011;11311;52.192;20.900;2022-12-18T13:11:46;75.00;;;37.35;;
22284;SDS011;11311;52.192;20.900;2022-12-18T13:14:34;86.03;;;41.67;;
22284;SDS011;11311;52.192;20.900;2022-12-18T13:17:16;77.93;;;41.45;;
22284;SDS011;11311;52.192;20.900;2022-12-18T13:20:06;80.03;;;39.83;;
22284;SDS011;11311;52.192;20.900;2022-12-18T13:22:37;78.43;;;39.33;;
22284;SDS011;11311;52.192;20.900;2022-12-18T13:28:04;74.22;;;37.33;;
22284;SDS011;11311;52.192;20.900;2022-12-18T13:30:44;77.72;;;38.75;;
22284;SDS011;11311;52.192;20.900;2022-12-18T13:36:38;68.15;;;36.92;;
22284;SDS011;11311;52.192;20.900;2022-12-18T13:39:10;73.82;;;40.40;;
22284;SDS011;11311;52.192;20.900;2022-12-18T13:45:38;78.80;;;41.15;;
22284;SDS011;11311;52.192;20.900;2022-12-18T13:50:58;78.90;;;40.75;;
22284;SDS011;11311;52.192;20.900;2022-12-18T13:53:32;82.15;;;40.58;;
22284;SDS011;11311;52.192;20.900;2022-12-18T13:56:03;86.82;;;42.20;;
22284;SDS011;11311;52.192;20.900;2022-12-18T13:58:31;85.00;;;43.10;;
22284;SDS011;11311;52.192;20.900;2022-12-18T14:01:01;85.03;;;42.20;;
22284;SDS011;11311;52.192;20.900;2022-12-18T14:03:31;80.60;;;40.72;;
22284;SDS011;11311;52.192;20.900;2022-12-18T14:06:01;83.88;;;43.10;;
22284;SDS011;11311;52.192;20.900;2022-12-18T14:08:34;90.40;;;45.90;;
22284;SDS011;11311;52.192;20.900;2022-12-18T14:11:06;84.80;;;40.33;;
22284;SDS011;11311;52.192;20.900;2022-12-18T14:13:37;79.95;;;39.67;;
22284;SDS011;11311;52.192;20.900;2022-12-18T14:16:12;85.63;;;40.15;;
22284;SDS011;11311;52.192;20.900;2022-12-18T14:18:44;81.32;;;40.53;;
22284;SDS011;11311;52.192;20.900;2022-12-18T14:21:17;77.38;;;41.85;;
22284;SDS011;11311;52.192;20.900;2022-12-18T14:23:49;78.93;;;38.92;;
22284;SDS011;11311;52.192;20.900;2022-12-18T14:26:31;86.10;;;43.47;;
22284;SDS011;11311;52.192;20.900;2022-12-18T14:29:01;82.32;;;42.58;;
22284;SDS011;11311;52.192;20.900;2022-12-18T14:34:44;96.68;;;43.42;;
22284;SDS011;11311;52.192;20.900;2022-12-18T14:37:14;91.15;;;46.35;;
22284;SDS011;11311;52.192;20.900;2022-12-18T14:39:56;88.78;;;44.75;;
22284;SDS011;11311;52.192;20.900;2022-12-18T14:42:26;84.65;;;44.65;;
22284;SDS011;11311;52.192;20.900;2022-12-18T14:48:08;65.13;;;30.60;;
22284;SDS011;11311;52.192;20.900;2022-12-18T14:50:45;82.18;;;40.67;;
22284;SDS011;11311;52.192;20.900;2022-12-18T14:53:32;78.68;;;41.42;;
22284;SDS011;11311;52.192;20.900;2022-12-18T14:56:04;72.95;;;35.65;;
22284;SDS011;11311;52.192;20.900;2022-12-18T14:58:44;64.30;;;31.27;;
22284;SDS011;11311;52.192;20.900;2022-12-18T15:01:18;79.13;;;40.17;;
22284;SDS011;11311;52.192;20.900;2022-12-18T15:03:48;68.15;;;36.78;;
22284;SDS011;11311;52.192;20.900;2022-12-18T15:06:17;81.65;;;37.30;;
22284;SDS011;11311;52.192;20.900;2022-12-18T15:08:51;74.30;;;37.72;;
22284;SDS011;11311;52.192;20.900;2022-12-18T15:11:26;71.50;;;34.35;;
22284;SDS011;11311;52.192;20.900;2022-12-18T15:13:57;59.08;;;26.30;;
22284;SDS011;11311;52.192;20.900;2022-12-18T15:16:27;63.50;;;30.77;;
22284;SDS011;11311;52.192;20.900;2022-12-18T15:18:57;46.83;;;20.30;;
22284;SDS011;11311;52.192;20.900;2022-12-18T15:21:26;80.82;;;37.70;;